Time;durP1;ratioP1;P1;durP2;ratioP2;P2;SDS_P1;SDS_P2;PMS_P1;PMS_P2;Temp;Humidity;BMP_temperature;BMP_pressure;BME280_temperature;BME280_humidity;BME280_pressure;Samples;Min_cycle;Max_cycle;Signal;HPM_P1;HPM_P2
2022/05/24 00:01:30;;;;;;;8.93;3.05;;;;;;;;;;6146036;23;20296;-88
2022/05/24 00:04:36;;;;;;;8.10;3.47;;;;;;;;;;6147315;23;20525;-90
2022/05/24 00:07:42;;;;;;;8.13;3.58;;;;;;;;;;6156561;23;20177;-89
2022/05/24 00:10:47;;;;;;;5.72;2.78;;;;;;;;;;6149251;23;20193;-90
2022/05/24 00:13:52;;;;;;;5.25;3.20;;;;;;;;;;6143817;23;20368;-90
2022/05/24 00:16:58;;;;;;;6.38;3.22;;;;;;;;;;6143998;23;20176;-89
2022/05/24 00:20:09;;;;;;;7.03;3.42;;;;;;;;;;6142297;23;20172;-89
2022/05/24 00:23:16;;;;;;;8.85;3.60;;;;;;;;;;6143338;23;20196;-88
2022/05/24 00:26:26;;;;;;;5.22;3.50;;;;;;;;;;6142422;23;20173;-90
2022/05/24 00:29:32;;;;;;;12.20;4.03;;;;;;;;;;6144112;23;20177;-89
2022/05/24 00:32:37;;;;;;;8.10;3.72;;;;;;;;;;6144154;23;20233;-89
2022/05/24 00:35:43;;;;;;;6.03;3.70;;;;;;;;;;6144099;23;20172;-88
2022/05/24 00:38:49;;;;;;;8.85;3.95;;;;;;;;;;6146116;23;20296;-90
2022/05/24 00:41:57;;;;;;;7.63;4.18;;;;;;;;;;6155847;23;20177;-90
2022/05/24 00:45:05;;;;;;;11.45;4.03;;;;;;;;;;6156669;23;20173;-90
2022/05/24 00:48:12;;;;;;;11.80;4.43;;;;;;;;;;6153377;23;20172;-90
2022/05/24 00:51:20;;;;;;;7.30;3.58;;;;;;;;;;6166148;23;20194;-90
2022/05/24 00:54:26;;;;;;;10.27;4.20;;;;;;;;;;6174256;23;20180;-90
2022/05/24 00:57:35;;;;;;;7.18;3.53;;;;;;;;;;6175969;23;20259;-90
2022/05/24 01:00:40;;;;;;;9.40;3.90;;;;;;;;;;6177608;23;20192;-88
2022/05/24 01:03:46;;;;;;;8.05;3.55;;;;;;;;;;6177517;23;20192;-90
2022/05/24 01:06:51;;;;;;;9.27;4.28;;;;;;;;;;6169773;23;20172;-89
2022/05/24 01:10:04;;;;;;;8.27;4.70;;;;;;;;;;6166252;23;20180;-90
2022/05/24 01:13:10;;;;;;;9.93;4.22;;;;;;;;;;6165039;23;20204;-90
2022/05/24 01:16:30;;;;;;;10.95;4.45;;;;;;;;;;6162451;23;20470;-90
2022/05/24 01:19:40;;;;;;;9.70;4.65;;;;;;;;;;6162137;23;20176;-89
2022/05/24 01:23:02;;;;;;;13.50;4.30;;;;;;;;;;6161923;23;20200;-89
2022/05/24 01:26:12;;;;;;;7.93;4.28;;;;;;;;;;6163704;23;20172;-90
2022/05/24 01:29:20;;;;;;;8.50;4.05;;;;;;;;;;6161934;23;20176;-89
2022/05/24 01:39:12;;;;;;;11.88;4.97;;;;;;;;;;6161196;23;20200;-90
2022/05/24 01:42:17;;;;;;;11.82;4.72;;;;;;;;;;6161167;23;20181;-89
2022/05/24 01:45:27;;;;;;;9.13;5.00;;;;;;;;;;6160577;23;20219;-88
2022/05/24 01:48:35;;;;;;;12.63;5.30;;;;;;;;;;6162653;23;20176;-90
2022/05/24 01:51:45;;;;;;;9.32;5.00;;;;;;;;;;6165021;23;20193;-88
2022/05/24 01:54:53;;;;;;;14.30;5.20;;;;;;;;;;6160639;23;20196;-89
2022/05/24 01:58:03;;;;;;;7.78;4.90;;;;;;;;;;6160840;23;20180;-90
2022/05/24 02:01:14;;;;;;;10.73;5.63;;;;;;;;;;6160802;23;20179;-90
2022/05/24 02:04:22;;;;;;;9.70;5.13;;;;;;;;;;6161178;23;20473;-90
2022/05/24 02:07:28;;;;;;;10.13;5.70;;;;;;;;;;6162405;23;20177;-88
2022/05/24 02:10:36;;;;;;;9.40;5.28;;;;;;;;;;6160514;23;20234;-89
2022/05/24 02:13:43;;;;;;;13.43;5.80;;;;;;;;;;6161718;23;20196;-89
2022/05/24 02:16:51;;;;;;;8.80;5.50;;;;;;;;;;6176093;23;20177;-88
2022/05/24 02:20:00;;;;;;;10.57;5.40;;;;;;;;;;6174034;23;20179;-88
2022/05/24 02:23:06;;;;;;;14.23;6.28;;;;;;;;;;6164277;23;20596;-90
2022/05/24 02:26:12;;;;;;;12.85;6.07;;;;;;;;;;6159544;23;20176;-89
2022/05/24 02:29:21;;;;;;;9.77;5.68;;;;;;;;;;6160713;23;20192;-89
2022/05/24 02:32:28;;;;;;;12.75;6.53;;;;;;;;;;6160616;23;20468;-89
2022/05/24 02:35:34;;;;;;;17.40;5.75;;;;;;;;;;6159056;23;20213;-89
2022/05/24 02:38:41;;;;;;;12.00;6.22;;;;;;;;;;6160358;23;20184;-89
2022/05/24 02:41:48;;;;;;;14.63;6.63;;;;;;;;;;6160424;23;20228;-88
2022/05/24 02:44:53;;;;;;;12.13;5.95;;;;;;;;;;6159319;23;20219;-89
2022/05/24 02:48:00;;;;;;;9.35;5.20;;;;;;;;;;6160166;23;20233;-89
2022/05/24 02:51:10;;;;;;;8.32;5.10;;;;;;;;;;6159497;23;20200;-88
2022/05/24 02:54:15;;;;;;;11.40;5.60;;;;;;;;;;6159631;23;20569;-88
2022/05/24 02:57:20;;;;;;;10.27;5.50;;;;;;;;;;6158899;23;20180;-88
2022/05/24 03:00:26;;;;;;;11.63;5.45;;;;;;;;;;6159649;23;20204;-88
2022/05/24 03:03:33;;;;;;;10.88;4.97;;;;;;;;;;6158928;23;20208;-89
2022/05/24 03:09:57;;;;;;;11.45;5.40;;;;;;;;;;6158316;23;20187;-89
2022/05/24 03:16:40;;;;;;;13.02;6.40;;;;;;;;;;6100039;23;20165;-89
2022/05/24 03:19:47;;;;;;;8.20;5.65;;;;;;;;;;6110500;23;20211;-90
2022/05/24 03:22:53;;;;;;;10.88;5.35;;;;;;;;;;6179822;23;20224;-87
2022/05/24 03:25:59;;;;;;;8.95;4.78;;;;;;;;;;6180666;23;20244;-88
2022/05/24 03:29:05;;;;;;;14.32;5.32;;;;;;;;;;6165838;23;20232;-89
2022/05/24 03:32:10;;;;;;;9.23;5.07;;;;;;;;;;6166205;23;20220;-88
2022/05/24 03:35:17;;;;;;;13.02;5.93;;;;;;;;;;6168635;23;20180;-88
2022/05/24 03:38:23;;;;;;;13.93;5.72;;;;;;;;;;6178036;23;20172;-86
2022/05/24 03:41:28;;;;;;;10.45;6.10;;;;;;;;;;6175645;23;20224;-86
2022/05/24 03:44:34;;;;;;;15.57;6.07;;;;;;;;;;6169736;23;20248;-89
2022/05/24 03:47:39;;;;;;;8.85;5.55;;;;;;;;;;6159752;23;20179;-88
2022/05/24 03:50:47;;;;;;;14.82;6.03;;;;;;;;;;6159762;23;20196;-89
2022/05/24 03:53:52;;;;;;;13.13;7.25;;;;;;;;;;6158992;23;20196;-86
2022/05/24 04:00:26;;;;;;;15.68;9.02;;;;;;;;;;6158198;23;20184;-87
2022/05/24 04:03:31;;;;;;;20.23;10.55;;;;;;;;;;6159105;23;20242;-88
2022/05/24 04:06:37;;;;;;;20.08;10.43;;;;;;;;;;6157587;23;20177;-88
2022/05/24 04:09:42;;;;;;;17.15;9.75;;;;;;;;;;6158425;23;20525;-88
2022/05/24 04:12:48;;;;;;;16.00;8.90;;;;;;;;;;6159017;23;20176;-89
2022/05/24 04:15:52;;;;;;;16.33;9.15;;;;;;;;;;6160020;23;20172;-88
2022/05/24 04:18:59;;;;;;;16.92;9.18;;;;;;;;;;6161200;23;20215;-88
2022/05/24 04:22:06;;;;;;;16.08;8.93;;;;;;;;;;6161449;23;20207;-88
2022/05/24 04:25:21;;;;;;;16.63;9.40;;;;;;;;;;6163393;23;20196;-88
2022/05/24 04:28:26;;;;;;;14.15;8.50;;;;;;;;;;6161720;23;20189;-88
2022/05/24 04:31:31;;;;;;;13.40;8.18;;;;;;;;;;6164690;23;20180;-88
2022/05/24 04:34:37;;;;;;;18.80;8.68;;;;;;;;;;6163957;23;20612;-88
2022/05/24 04:37:44;;;;;;;16.10;8.35;;;;;;;;;;6165653;23;20533;-89
2022/05/24 04:44:15;;;;;;;16.38;9.77;;;;;;;;;;6181417;23;20250;-88
2022/05/24 07:22:50;;;;;;;14.60;6.75;;;;;;;;;;6179574;23;20208;-88
2022/05/24 07:25:57;;;;;;;10.77;6.00;;;;;;;;;;6221016;23;20174;-89
2022/05/24 07:29:03;;;;;;;14.15;6.53;;;;;;;;;;6221669;23;20175;-89
2022/05/24 07:32:09;;;;;;;12.68;6.93;;;;;;;;;;6221819;23;20543;-87
2022/05/24 07:35:15;;;;;;;12.02;6.43;;;;;;;;;;6222186;23;20163;-89
2022/05/24 07:38:23;;;;;;;17.70;6.13;;;;;;;;;;6222674;23;20179;-89
2022/05/24 07:48:16;;;;;;;15.63;6.35;;;;;;;;;;6220354;23;20385;-89
2022/05/24 07:51:22;;;;;;;13.98;6.25;;;;;;;;;;6222612;23;20174;-88
2022/05/24 07:54:29;;;;;;;13.35;6.78;;;;;;;;;;6222627;23;20238;-88
2022/05/24 07:57:34;;;;;;;11.10;6.25;;;;;;;;;;6222854;23;20195;-88
2022/05/24 08:00:40;;;;;;;8.88;5.78;;;;;;;;;;6224123;23;20179;-88
2022/05/24 08:03:46;;;;;;;13.57;5.57;;;;;;;;;;6224188;23;20199;-88
2022/05/24 08:06:54;;;;;;;9.50;5.32;;;;;;;;;;6194421;23;20203;-88
2022/05/24 08:10:01;;;;;;;10.57;5.00;;;;;;;;;;6177269;23;20175;-89
2022/05/24 08:13:07;;;;;;;10.70;5.05;;;;;;;;;;6175455;23;20179;-89
2022/05/24 08:16:12;;;;;;;8.50;5.07;;;;;;;;;;6173997;23;20175;-89
2022/05/24 08:19:18;;;;;;;12.65;6.82;;;;;;;;;;6176887;23;20520;-87
2022/05/24 08:26:40;;;;;;;9.32;4.10;;;;;;;;;;6191053;23;20195;-88
2022/05/24 08:29:46;;;;;;;7.03;4.30;;;;;;;;;;6196016;23;20454;-89
2022/05/24 08:32:56;;;;;;;10.05;4.45;;;;;;;;;;6176089;23;20168;-89
2022/05/24 08:36:01;;;;;;;11.88;5.22;;;;;;;;;;6174339;23;20185;-87
2022/05/24 08:39:06;;;;;;;13.32;4.90;;;;;;;;;;6175288;23;20176;-85
2022/05/24 08:42:18;;;;;;;12.60;5.32;;;;;;;;;;6162940;23;20171;-89
2022/05/24 08:48:51;;;;;;;8.18;3.83;;;;;;;;;;6210292;23;20152;-87
2022/05/24 08:51:58;;;;;;;8.38;3.45;;;;;;;;;;6191489;23;20200;-87
2022/05/24 08:55:06;;;;;;;8.38;3.90;;;;;;;;;;6178567;23;20238;-89
2022/05/24 08:58:16;;;;;;;10.15;4.40;;;;;;;;;;6194920;23;20168;-90
2022/05/24 09:01:24;;;;;;;19.55;4.72;;;;;;;;;;6176667;23;20187;-88
2022/05/24 09:04:30;;;;;;;12.52;4.90;;;;;;;;;;6176495;23;20195;-86
2022/05/24 09:07:39;;;;;;;12.20;4.78;;;;;;;;;;6177659;23;20223;-87
2022/05/24 09:10:47;;;;;;;8.52;4.07;;;;;;;;;;6194649;23;20537;-86
2022/05/24 09:14:11;;;;;;;11.77;5.07;;;;;;;;;;6177969;23;20184;-87
2022/05/24 09:17:25;;;;;;;6.57;3.90;;;;;;;;;;6175657;23;20176;-88
2022/05/24 09:20:33;;;;;;;12.13;4.47;;;;;;;;;;6193218;23;20171;-86
2022/05/24 09:23:42;;;;;;;8.48;4.05;;;;;;;;;;6176909;23;20226;-89
2022/05/24 09:27:06;;;;;;;8.50;4.10;;;;;;;;;;6174040;23;20576;-89
2022/05/24 09:30:23;;;;;;;6.40;3.40;;;;;;;;;;6174719;23;20520;-88
2022/05/24 09:33:32;;;;;;;9.35;4.55;;;;;;;;;;6174598;23;20537;-89
2022/05/24 09:36:39;;;;;;;9.48;4.55;;;;;;;;;;6175434;23;20254;-89
2022/05/24 09:39:57;;;;;;;7.32;4.38;;;;;;;;;;6158746;23;20288;-88
2022/05/24 09:43:16;;;;;;;10.65;4.55;;;;;;;;;;6175195;23;20273;-88
2022/05/24 09:46:24;;;;;;;8.65;3.95;;;;;;;;;;6176122;23;20168;-88
2022/05/24 09:49:34;;;;;;;8.88;4.60;;;;;;;;;;6176615;23;20172;-88
2022/05/24 09:52:39;;;;;;;11.93;4.60;;;;;;;;;;6175916;23;20239;-89
2022/05/24 09:55:47;;;;;;;12.05;4.70;;;;;;;;;;6175974;23;20168;-88
2022/05/24 09:58:55;;;;;;;7.82;4.35;;;;;;;;;;6191974;23;20175;-90
2022/05/24 10:02:02;;;;;;;8.65;4.43;;;;;;;;;;6174196;23;20179;-87
2022/05/24 10:05:19;;;;;;;9.38;4.22;;;;;;;;;;6173980;23;20215;-89
2022/05/24 10:08:24;;;;;;;13.35;3.95;;;;;;;;;;6174505;23;20431;-88
2022/05/24 10:11:31;;;;;;;5.93;4.03;;;;;;;;;;6174403;23;20218;-88
2022/05/24 10:14:40;;;;;;;8.13;4.40;;;;;;;;;;6172847;23;20167;-87
2022/05/24 10:17:51;;;;;;;8.23;3.88;;;;;;;;;;6193304;23;20175;-88
2022/05/24 10:21:01;;;;;;;9.45;4.28;;;;;;;;;;6174360;23;20256;-89
2022/05/24 10:24:12;;;;;;;10.05;4.68;;;;;;;;;;6167477;23;20211;-88
2022/05/24 10:27:22;;;;;;;9.90;4.45;;;;;;;;;;6175217;23;20402;-87
2022/05/24 10:30:31;;;;;;;9.43;4.47;;;;;;;;;;6176573;23;20180;-89
2022/05/24 10:40:32;;;;;;;9.40;4.47;;;;;;;;;;6189959;23;20244;-88
2022/05/24 10:43:46;;;;;;;9.88;4.75;;;;;;;;;;6174930;23;20176;-86
2022/05/24 10:46:57;;;;;;;11.85;4.82;;;;;;;;;;6176711;23;20175;-89
2022/05/24 10:50:06;;;;;;;8.65;4.57;;;;;;;;;;6178831;23;20245;-86
2022/05/24 10:53:17;;;;;;;15.73;4.80;;;;;;;;;;6195773;23;20203;-87
2022/05/24 10:56:37;;;;;;;11.52;5.63;;;;;;;;;;6178062;23;20171;-87
2022/05/24 10:59:50;;;;;;;13.50;4.75;;;;;;;;;;6177343;23;20442;-89
2022/05/24 11:02:59;;;;;;;11.23;5.25;;;;;;;;;;6180035;23;20195;-88
2022/05/24 11:06:06;;;;;;;18.05;4.50;;;;;;;;;;6180745;23;20274;-89
2022/05/24 11:09:17;;;;;;;13.07;5.05;;;;;;;;;;6184798;23;20227;-90
2022/05/24 11:12:26;;;;;;;10.88;4.40;;;;;;;;;;6199667;23;20529;-89
2022/05/24 11:15:34;;;;;;;9.93;3.75;;;;;;;;;;6182982;23;20207;-88
2022/05/24 11:18:41;;;;;;;10.55;4.13;;;;;;;;;;6185647;23;20172;-86
2022/05/24 11:21:48;;;;;;;7.50;4.13;;;;;;;;;;6176382;23;20505;-88
2022/05/24 11:25:03;;;;;;;13.90;4.80;;;;;;;;;;6173178;23;20571;-88
2022/05/24 11:28:18;;;;;;;12.35;4.97;;;;;;;;;;6191088;23;20179;-90
2022/05/24 11:31:30;;;;;;;9.90;3.35;;;;;;;;;;6173035;23;20188;-89
2022/05/24 11:34:37;;;;;;;7.28;1.70;;;;;;;;;;6173778;23;20362;-88
2022/05/24 11:37:44;;;;;;;4.25;1.30;;;;;;;;;;6191274;23;20178;-88
2022/05/24 11:41:07;;;;;;;4.38;1.50;;;;;;;;;;6174618;23;20386;-87
2022/05/24 11:44:34;;;;;;;4.05;1.00;;;;;;;;;;6172086;23;20398;-88
2022/05/24 11:47:59;;;;;;;3.70;1.30;;;;;;;;;;6172445;23;20239;-87
2022/05/24 11:51:30;;;;;;;2.67;1.20;;;;;;;;;;6172616;23;20774;-89
2022/05/24 11:54:55;;;;;;;4.78;1.35;;;;;;;;;;6189971;23;20171;-89
2022/05/24 11:58:08;;;;;;;4.57;1.50;;;;;;;;;;6172714;23;20176;-89
2022/05/24 12:01:33;;;;;;;5.85;1.60;;;;;;;;;;6173852;23;20262;-90
2022/05/24 12:08:27;;;;;;;3.33;1.05;;;;;;;;;;6209833;23;20252;-87
2022/05/24 12:11:36;;;;;;;5.57;1.20;;;;;;;;;;6193106;23;20152;-87
2022/05/24 12:14:43;;;;;;;10.93;1.67;;;;;;;;;;6192764;23;20219;-87
2022/05/24 12:17:52;;;;;;;5.82;1.60;;;;;;;;;;6177122;23;20180;-88
2022/05/24 12:21:00;;;;;;;7.30;1.40;;;;;;;;;;6193983;23;20172;-88
2022/05/24 12:24:30;;;;;;;8.10;1.73;;;;;;;;;;6177642;23;20259;-88
2022/05/24 12:27:45;;;;;;;3.92;1.92;;;;;;;;;;6174521;23;20168;-88
2022/05/24 12:30:53;;;;;;;6.72;1.40;;;;;;;;;;6192121;23;20252;-88
2022/05/24 12:34:01;;;;;;;1.90;1.30;;;;;;;;;;6172459;23;20413;-88
2022/05/24 12:37:11;;;;;;;4.43;1.55;;;;;;;;;;6190826;23;20172;-87
2022/05/24 12:40:19;;;;;;;5.30;1.50;;;;;;;;;;6157787;23;20179;-88
2022/05/24 12:43:24;;;;;;;2.05;1.40;;;;;;;;;;6173995;23;20234;-88
2022/05/24 12:46:33;;;;;;;4.93;1.42;;;;;;;;;;6190799;23;20243;-88
2022/05/24 12:49:39;;;;;;;3.65;2.10;;;;;;;;;;6174447;23;20231;-88
2022/05/24 12:52:48;;;;;;;7.68;2.15;;;;;;;;;;6173860;23;20528;-87
2022/05/24 12:55:57;;;;;;;2.30;1.20;;;;;;;;;;6172693;23;20292;-87
2022/05/24 12:59:10;;;;;;;3.92;1.65;;;;;;;;;;6173315;23;20172;-89
2022/05/24 13:02:25;;;;;;;3.80;1.40;;;;;;;;;;6174086;23;20396;-88
2022/05/24 13:05:36;;;;;;;12.63;1.70;;;;;;;;;;6174359;23;20215;-88
2022/05/24 13:08:43;;;;;;;21.50;2.00;;;;;;;;;;6175426;23;20180;-87
2022/05/24 13:11:51;;;;;;;4.55;2.40;;;;;;;;;;6174411;23;20175;-87
2022/05/24 13:14:57;;;;;;;12.18;2.22;;;;;;;;;;6173708;23;20176;-84
2022/05/24 13:18:08;;;;;;;12.13;2.10;;;;;;;;;;6174359;23;20196;-89
2022/05/24 13:21:17;;;;;;;7.47;2.10;;;;;;;;;;6190346;23;20197;-87
2022/05/24 13:24:23;;;;;;;8.57;2.30;;;;;;;;;;6173289;23;20168;-86
2022/05/24 13:27:50;;;;;;;13.00;2.35;;;;;;;;;;6173848;23;20292;-87
2022/05/24 13:34:23;;;;;;;8.82;2.20;;;;;;;;;;6190497;23;20211;-87
2022/05/24 13:37:49;;;;;;;12.18;2.35;;;;;;;;;;6173352;23;20254;-87
2022/05/24 13:40:55;;;;;;;14.98;2.33;;;;;;;;;;6177008;23;20243;-87
2022/05/24 13:44:10;;;;;;;13.98;2.65;;;;;;;;;;6177504;23;20168;-87
2022/05/24 13:47:25;;;;;;;5.53;2.65;;;;;;;;;;6190742;23;20541;-87
2022/05/24 13:50:40;;;;;;;6.05;2.35;;;;;;;;;;6198922;23;20252;-87
2022/05/24 13:53:46;;;;;;;16.35;2.70;;;;;;;;;;6191382;23;20299;-87
2022/05/24 13:56:52;;;;;;;10.80;3.25;;;;;;;;;;6156183;23;20168;-86
2022/05/24 14:00:02;;;;;;;10.45;3.20;;;;;;;;;;6173121;23;20195;-87
2022/05/24 14:03:09;;;;;;;3.83;2.10;;;;;;;;;;6191513;23;20427;-87
2022/05/24 14:06:18;;;;;;;7.65;2.30;;;;;;;;;;6173253;23;20452;-86
2022/05/24 14:09:25;;;;;;;4.68;2.22;;;;;;;;;;6172811;23;20175;-87
2022/05/24 14:12:30;;;;;;;7.03;2.20;;;;;;;;;;6194453;23;20191;-85
2022/05/24 14:15:41;;;;;;;4.28;2.15;;;;;;;;;;6188843;23;20196;-89
2022/05/24 14:18:49;;;;;;;2.40;1.65;;;;;;;;;;6183202;23;20192;-85
2022/05/24 14:21:58;;;;;;;4.35;2.17;;;;;;;;;;6192384;23;20241;-86
2022/05/24 14:25:03;;;;;;;11.48;2.45;;;;;;;;;;6173495;23;20505;-88
2022/05/24 14:28:08;;;;;;;4.93;1.98;;;;;;;;;;6172767;23;20168;-88
2022/05/24 14:31:14;;;;;;;7.55;2.03;;;;;;;;;;6173371;23;20637;-89
2022/05/24 14:34:19;;;;;;;3.88;2.00;;;;;;;;;;6174333;23;20489;-87
2022/05/24 14:37:32;;;;;;;3.50;1.50;;;;;;;;;;6174631;23;20176;-89
2022/05/24 14:40:38;;;;;;;6.57;1.50;;;;;;;;;;6175660;23;20581;-89
2022/05/24 14:43:46;;;;;;;6.22;1.45;;;;;;;;;;6191878;23;20214;-89
2022/05/24 14:46:52;;;;;;;3.90;1.38;;;;;;;;;;6172085;23;20215;-88
2022/05/24 14:49:57;;;;;;;2.75;1.40;;;;;;;;;;6174145;23;20351;-89
2022/05/24 14:53:03;;;;;;;3.53;1.30;;;;;;;;;;6191589;23;20451;-89
2022/05/24 14:56:09;;;;;;;3.72;1.60;;;;;;;;;;6172610;23;20206;-88
2022/05/24 14:59:15;;;;;;;4.03;1.48;;;;;;;;;;6176060;23;20418;-89
2022/05/24 15:02:22;;;;;;;5.68;2.00;;;;;;;;;;6173715;23;20223;-89
2022/05/24 15:05:28;;;;;;;5.20;1.50;;;;;;;;;;6176129;23;20595;-90
2022/05/24 15:15:24;;;;;;;9.18;1.88;;;;;;;;;;6195752;23;20223;-87
2022/05/24 15:18:30;;;;;;;3.67;1.52;;;;;;;;;;6175849;23;20424;-87
2022/05/24 15:21:43;;;;;;;2.30;1.08;;;;;;;;;;6178852;23;20178;-86
2022/05/24 15:24:50;;;;;;;2.60;1.20;;;;;;;;;;6148501;23;20181;-88
2022/05/24 15:27:58;;;;;;;2.15;1.13;;;;;;;;;;6146969;23;20217;-88
2022/05/24 15:31:03;;;;;;;3.70;1.17;;;;;;;;;;6150001;23;20296;-88
2022/05/24 15:34:12;;;;;;;1.45;0.85;;;;;;;;;;6151027;23;20185;-86
2022/05/24 15:37:18;;;;;;;2.92;0.98;;;;;;;;;;6149209;23;20256;-87
2022/05/24 15:40:24;;;;;;;3.00;0.90;;;;;;;;;;6147636;23;20177;-87
2022/05/24 15:43:30;;;;;;;1.27;0.80;;;;;;;;;;6150540;23;20181;-88
2022/05/24 15:46:36;;;;;;;2.38;0.90;;;;;;;;;;6144848;23;20236;-89
2022/05/24 15:49:41;;;;;;;2.38;0.90;;;;;;;;;;6145471;23;20477;-89
2022/05/24 15:52:48;;;;;;;2.47;0.60;;;;;;;;;;6127664;23;20176;-89
2022/05/24 15:55:54;;;;;;;5.72;0.80;;;;;;;;;;6143739;23;20635;-88
2022/05/24 15:59:00;;;;;;;3.15;0.70;;;;;;;;;;6144201;23;20220;-88
2022/05/24 16:02:05;;;;;;;3.70;0.70;;;;;;;;;;6143802;23;20172;-87
2022/05/24 16:11:57;;;;;;;6.63;0.90;;;;;;;;;;6145646;23;20269;-88
2022/05/24 16:15:03;;;;;;;1.90;1.10;;;;;;;;;;6160637;23;20163;-88
2022/05/24 16:18:11;;;;;;;5.30;0.70;;;;;;;;;;6164082;23;20172;-88
2022/05/24 16:21:22;;;;;;;4.00;1.00;;;;;;;;;;6162872;23;20246;-88
2022/05/24 16:24:27;;;;;;;1.88;1.00;;;;;;;;;;6164728;23;20168;-87
2022/05/24 16:27:35;;;;;;;1.50;0.85;;;;;;;;;;6164458;23;20233;-88
2022/05/24 16:30:41;;;;;;;2.65;1.00;;;;;;;;;;6165386;23;20212;-87
2022/05/24 16:33:47;;;;;;;2.20;1.27;;;;;;;;;;6165700;23;20156;-86
2022/05/24 16:36:53;;;;;;;3.15;1.00;;;;;;;;;;6165071;23;20152;-87
2022/05/24 16:39:58;;;;;;;4.22;1.27;;;;;;;;;;6165401;23;20165;-89
2022/05/24 16:43:05;;;;;;;3.03;0.85;;;;;;;;;;6165063;23;20173;-88
2022/05/24 16:46:10;;;;;;;4.05;0.90;;;;;;;;;;6164992;23;20208;-88
2022/05/24 16:49:16;;;;;;;2.15;1.00;;;;;;;;;;6165691;23;20198;-85
2022/05/24 16:52:22;;;;;;;3.72;1.00;;;;;;;;;;6167061;23;20285;-86
2022/05/24 16:58:52;;;;;;;2.80;1.30;;;;;;;;;;6162671;23;20249;-86
2022/05/24 17:01:57;;;;;;;2.35;1.00;;;;;;;;;;6146341;23;20172;-86
2022/05/24 17:05:02;;;;;;;2.22;1.10;;;;;;;;;;6145403;23;20537;-86
2022/05/24 17:08:09;;;;;;;5.82;1.30;;;;;;;;;;6144579;23;20176;-86
2022/05/24 17:11:17;;;;;;;1.70;1.20;;;;;;;;;;6144980;23;20208;-87
2022/05/24 17:14:25;;;;;;;3.05;1.10;;;;;;;;;;6148371;23;20197;-88
2022/05/24 17:17:30;;;;;;;2.42;1.30;;;;;;;;;;6150945;23;20188;-84
2022/05/24 17:20:36;;;;;;;2.40;1.40;;;;;;;;;;6141345;23;20239;-86
2022/05/24 17:23:41;;;;;;;4.38;1.60;;;;;;;;;;6168151;23;20191;-87
2022/05/24 17:26:46;;;;;;;4.13;1.23;;;;;;;;;;6172427;23;20235;-87
2022/05/24 17:29:56;;;;;;;7.05;1.55;;;;;;;;;;6172458;23;20175;-87
2022/05/24 17:33:03;;;;;;;4.03;1.20;;;;;;;;;;6174211;23;20188;-86
2022/05/24 17:36:09;;;;;;;2.97;1.20;;;;;;;;;;6175243;23;20814;-88
2022/05/24 17:39:14;;;;;;;4.18;1.42;;;;;;;;;;6174087;23;20257;-86
2022/05/24 17:42:20;;;;;;;2.97;1.40;;;;;;;;;;6176250;23;20179;-86
2022/05/24 17:45:27;;;;;;;5.22;1.30;;;;;;;;;;6192255;23;20175;-87
2022/05/24 17:48:40;;;;;;;2.38;1.10;;;;;;;;;;6173882;23;20226;-87
2022/05/24 17:51:45;;;;;;;1.30;1.10;;;;;;;;;;6173695;23;20172;-87
2022/05/24 17:54:50;;;;;;;1.73;1.10;;;;;;;;;;6190958;23;20180;-86
2022/05/24 17:57:56;;;;;;;6.38;1.75;;;;;;;;;;6191064;23;20172;-85
2022/05/24 18:01:04;;;;;;;2.38;1.25;;;;;;;;;;6191300;23;20244;-86
2022/05/24 18:04:10;;;;;;;4.10;1.40;;;;;;;;;;6174784;23;20291;-86
2022/05/24 18:07:18;;;;;;;6.03;2.05;;;;;;;;;;6174937;23;20196;-85
2022/05/24 18:10:24;;;;;;;4.63;1.05;;;;;;;;;;6174274;23;20179;-86
2022/05/24 18:13:31;;;;;;;6.78;1.50;;;;;;;;;;6173323;23;20536;-87
2022/05/24 18:16:38;;;;;;;2.45;1.23;;;;;;;;;;6191664;23;20176;-86
2022/05/24 18:19:44;;;;;;;3.65;1.65;;;;;;;;;;6172180;23;20171;-86
2022/05/24 18:22:50;;;;;;;3.10;1.63;;;;;;;;;;6173628;23;20196;-86
2022/05/24 18:36:12;;;;;;;4.95;1.38;;;;;;;;;;6190204;23;20171;-85
2022/05/24 18:39:17;;;;;;;1.55;1.30;;;;;;;;;;6191507;23;20184;-86
2022/05/24 18:42:25;;;;;;;2.53;1.70;;;;;;;;;;6173580;23;20455;-85
2022/05/24 18:45:32;;;;;;;2.25;1.50;;;;;;;;;;6172064;23;20179;-84
2022/05/24 18:48:38;;;;;;;8.80;2.10;;;;;;;;;;6191509;23;20175;-87
2022/05/24 18:51:46;;;;;;;5.03;3.05;;;;;;;;;;6172966;23;20222;-86
2022/05/24 18:54:57;;;;;;;7.72;1.90;;;;;;;;;;6172906;23;20280;-86
2022/05/24 18:58:02;;;;;;;2.33;1.25;;;;;;;;;;6193383;23;20188;-85
2022/05/24 19:01:12;;;;;;;2.45;1.50;;;;;;;;;;6193329;23;20251;-86
2022/05/24 19:04:19;;;;;;;7.93;2.13;;;;;;;;;;6190864;23;20403;-87
2022/05/24 19:10:55;;;;;;;3.97;1.60;;;;;;;;;;6173823;23;20198;-86
2022/05/24 19:14:01;;;;;;;5.13;1.77;;;;;;;;;;6173901;23;20172;-87
2022/05/24 19:17:09;;;;;;;7.97;2.13;;;;;;;;;;6175938;23;20172;-86
2022/05/24 19:20:24;;;;;;;5.18;2.10;;;;;;;;;;6194152;23;20171;-86
2022/05/24 19:23:30;;;;;;;4.65;1.83;;;;;;;;;;6178713;23;20252;-87
2022/05/24 19:26:36;;;;;;;5.55;2.20;;;;;;;;;;6175492;23;20472;-87
2022/05/24 19:29:42;;;;;;;4.15;2.03;;;;;;;;;;6176215;23;20179;-87
2022/05/24 19:32:48;;;;;;;8.73;2.05;;;;;;;;;;6176847;23;20540;-87
2022/05/24 19:35:54;;;;;;;6.22;2.00;;;;;;;;;;6187170;23;20191;-85
2022/05/24 19:42:23;;;;;;;3.80;2.08;;;;;;;;;;6210883;23;20171;-84
2022/05/24 19:45:28;;;;;;;5.35;2.30;;;;;;;;;;6196289;23;20151;-87
2022/05/24 19:48:34;;;;;;;7.78;2.40;;;;;;;;;;6198125;23;20225;-84
2022/05/24 19:51:46;;;;;;;7.63;2.08;;;;;;;;;;6195206;23;20171;-86
2022/05/24 19:54:51;;;;;;;5.55;1.80;;;;;;;;;;6213377;23;20179;-83
2022/05/24 19:57:57;;;;;;;4.82;2.13;;;;;;;;;;6196509;23;20179;-84
2022/05/24 20:01:02;;;;;;;3.17;2.10;;;;;;;;;;6193900;23;20404;-87
2022/05/24 20:04:08;;;;;;;5.22;2.30;;;;;;;;;;6200914;23;20175;-85
2022/05/24 20:07:18;;;;;;;6.20;2.35;;;;;;;;;;6197641;23;20235;-86
2022/05/24 20:10:24;;;;;;;3.60;2.30;;;;;;;;;;6178594;23;20222;-87
2022/05/24 20:13:33;;;;;;;3.92;2.50;;;;;;;;;;6179710;23;20176;-86
2022/05/24 20:16:39;;;;;;;4.43;2.63;;;;;;;;;;6179061;23;20536;-87
2022/05/24 20:19:45;;;;;;;2.85;2.25;;;;;;;;;;6177853;23;20540;-86
2022/05/24 20:22:52;;;;;;;6.13;2.33;;;;;;;;;;6176799;23;20391;-86
2022/05/24 20:25:58;;;;;;;8.88;2.20;;;;;;;;;;6195098;23;20428;-87
2022/05/24 20:29:04;;;;;;;6.35;2.40;;;;;;;;;;6195470;23;20638;-87
2022/05/24 20:32:17;;;;;;;3.28;2.05;;;;;;;;;;6177706;23;20366;-87
2022/05/24 20:35:41;;;;;;;8.43;4.45;;;;;;;;;;6178257;23;20171;-86
2022/05/24 20:38:49;;;;;;;6.78;2.00;;;;;;;;;;6178060;23;20172;-87
2022/05/24 20:42:16;;;;;;;5.50;2.30;;;;;;;;;;6182093;23;20180;-85
2022/05/24 20:45:35;;;;;;;;;;;;;;;;;;;;;
2022/05/24 20:48:47;;;;;;;6.63;2.47;;;;;;;;;;6177144;23;20199;-87
2022/05/24 20:51:52;;;;;;;4.43;2.30;;;;;;;;;;6178244;23;20179;-87
2022/05/24 20:55:02;;;;;;;3.80;2.30;;;;;;;;;;6182437;23;20176;-83
2022/05/24 20:58:07;;;;;;;5.00;2.25;;;;;;;;;;6207231;23;20269;-86
2022/05/24 21:01:15;;;;;;;4.00;2.40;;;;;;;;;;6206476;23;20514;-84
2022/05/24 21:04:21;;;;;;;7.05;3.42;;;;;;;;;;6205996;23;20195;-85
2022/05/24 21:07:33;;;;;;;4.00;2.50;;;;;;;;;;6188051;23;20264;-87
2022/05/24 21:10:40;;;;;;;8.30;3.25;;;;;;;;;;6183907;23;20256;-87
2022/05/24 21:13:45;;;;;;;3.95;2.63;;;;;;;;;;6193510;23;20191;-87
2022/05/24 21:16:51;;;;;;;6.38;2.58;;;;;;;;;;6178041;23;20214;-85
2022/05/24 21:19:56;;;;;;;5.60;3.00;;;;;;;;;;6193913;23;20176;-86
2022/05/24 21:23:05;;;;;;;8.77;2.50;;;;;;;;;;6177857;23;20262;-85
2022/05/24 21:29:36;;;;;;;7.18;2.88;;;;;;;;;;6161328;23;20260;-86
2022/05/24 21:32:59;;;;;;;7.30;2.47;;;;;;;;;;6176178;23;20179;-86
2022/05/24 21:36:08;;;;;;;4.47;2.53;;;;;;;;;;6176815;23;20180;-86
2022/05/24 21:39:17;;;;;;;4.93;2.53;;;;;;;;;;6196861;23;20176;-86
2022/05/24 21:42:22;;;;;;;5.60;2.47;;;;;;;;;;6175919;23;20176;-86
2022/05/24 21:45:30;;;;;;;4.32;2.92;;;;;;;;;;6174518;23;20171;-87
2022/05/24 21:48:35;;;;;;;4.90;2.80;;;;;;;;;;6194139;23;20250;-86
2022/05/24 21:51:44;;;;;;;7.07;3.30;;;;;;;;;;6175478;23;20275;-87
2022/05/24 21:54:51;;;;;;;9.70;3.40;;;;;;;;;;6175621;23;20171;-87
2022/05/24 21:57:57;;;;;;;6.75;2.67;;;;;;;;;;6174286;23;20236;-87
2022/05/24 22:01:06;;;;;;;4.70;2.40;;;;;;;;;;6176510;23;20211;-87
2022/05/24 22:04:12;;;;;;;4.30;2.88;;;;;;;;;;6177383;23;20199;-85
2022/05/24 22:07:18;;;;;;;5.88;3.22;;;;;;;;;;6182805;23;20420;-86
2022/05/24 22:10:25;;;;;;;8.45;4.00;;;;;;;;;;6178983;23;20220;-86
2022/05/24 22:13:30;;;;;;;7.15;3.53;;;;;;;;;;6185658;23;20219;-85
2022/05/24 22:16:36;;;;;;;5.82;3.00;;;;;;;;;;6183431;23;20211;-86
2022/05/24 22:19:41;;;;;;;4.75;2.67;;;;;;;;;;6176483;23;20172;-87
2022/05/24 22:22:46;;;;;;;4.45;3.17;;;;;;;;;;6177857;23;20191;-86
2022/05/24 22:25:53;;;;;;;9.30;3.83;;;;;;;;;;6177371;23;20183;-86
2022/05/24 22:28:59;;;;;;;6.97;3.70;;;;;;;;;;6174906;23;20299;-86
2022/05/24 22:32:05;;;;;;;5.25;2.85;;;;;;;;;;6191435;23;20200;-87
2022/05/24 22:35:12;;;;;;;10.10;3.30;;;;;;;;;;6172582;23;20178;-87
2022/05/24 22:38:18;;;;;;;8.15;4.10;;;;;;;;;;6190303;23;20180;-86
2022/05/24 22:41:25;;;;;;;9.35;3.40;;;;;;;;;;6190807;23;20172;-86
2022/05/24 22:47:55;;;;;;;7.38;3.22;;;;;;;;;;6200434;23;20204;-86
2022/05/24 22:51:00;;;;;;;4.85;2.95;;;;;;;;;;6196395;23;20303;-86